Time;durP1;ratioP1;P1;durP2;ratioP2;P2;SDS_P1;SDS_P2;PMS_P1;PMS_P2;Temp;Humidity;BMP_temperature;BMP_pressure;BME280_temperature;BME280_humidity;BME280_pressure;Samples;Min_cycle;Max_cycle;Signal;HPM_P1;HPM_P2
2022/04/15 00:01:03;;;;;;;6.53;4.83;;;13.90;99.90;;;;;;5009031;28;20218;-78
2022/04/15 00:03:30;;;;;;;5.83;5.10;;;13.80;99.90;;;;;;5005710;28;20261;-78
2022/04/15 00:05:56;;;;;;;7.43;5.77;;;13.80;99.90;;;;;;5006192;28;20277;-78
2022/04/15 00:08:22;;;;;;;6.53;5.37;;;13.90;99.90;;;;;;5004936;28;20282;-78
2022/04/15 00:10:48;;;;;;;7.07;5.90;;;13.90;99.90;;;;;;5005740;28;20198;-76
2022/04/15 00:13:19;;;;;;;6.77;5.73;;;14.00;99.90;;;;;;5007501;28;20187;-76
2022/04/15 00:15:45;;;;;;;5.00;4.50;;;14.00;99.90;;;;;;5012180;28;20282;-78
2022/04/15 00:18:11;;;;;;;6.40;4.80;;;13.90;99.90;;;;;;5009681;28;20218;-78
2022/04/15 00:20:36;;;;;;;8.27;5.23;;;13.90;99.90;;;;;;5006198;28;20194;-78
2022/04/15 00:23:02;;;;;;;6.80;5.57;;;13.90;99.90;;;;;;5012604;28;20699;-77
2022/04/15 00:25:28;;;;;;;6.03;5.43;;;13.90;99.90;;;;;;5011326;28;20212;-78
2022/04/15 00:27:54;;;;;;;6.03;5.43;;;13.90;99.90;;;;;;5011035;28;20523;-78
2022/04/15 00:30:19;;;;;;;6.87;5.50;;;13.90;99.90;;;;;;5010924;28;20182;-78
2022/04/15 00:32:45;;;;;;;6.33;5.43;;;13.90;99.90;;;;;;5009169;28;20242;-77
2022/04/15 00:35:11;;;;;;;6.70;6.00;;;13.90;99.90;;;;;;5013401;28;20270;-78
2022/04/15 00:37:37;;;;;;;7.53;6.83;;;13.90;99.90;;;;;;5011444;28;20179;-77
2022/04/15 00:40:06;;;;;;;7.53;6.77;;;13.80;99.90;;;;;;5012348;28;20663;-78
2022/04/15 00:42:32;;;;;;;7.57;6.77;;;13.80;99.90;;;;;;5012214;28;20213;-78
2022/04/15 00:44:59;;;;;;;6.60;6.00;;;13.70;99.90;;;;;;5005850;28;20180;-78
2022/04/15 00:47:44;;;;;;;6.30;5.60;;;13.60;99.90;;;;;;5013447;28;20203;-78
2022/04/15 00:50:10;;;;;;;5.83;5.10;;;13.50;99.90;;;;;;5010976;28;20187;-77
2022/04/15 00:52:40;;;;;;;5.97;5.47;;;13.50;99.90;;;;;;5010671;28;20183;-78
2022/04/15 00:55:06;;;;;;;5.67;4.80;;;13.40;99.90;;;;;;5012144;28;20188;-77
2022/04/15 00:57:36;;;;;;;5.30;4.27;;;13.40;99.90;;;;;;5014671;28;20187;-78
2022/04/15 01:00:05;;;;;;;6.23;5.33;;;13.30;99.90;;;;;;5011949;28;20225;-78
2022/04/15 01:02:33;;;;;;;5.57;4.97;;;13.40;99.90;;;;;;5009239;28;20713;-78
2022/04/15 01:05:01;;;;;;;6.83;4.57;;;13.40;99.90;;;;;;5010868;28;20194;-78
2022/04/15 01:07:32;;;;;;;7.00;5.40;;;13.30;99.90;;;;;;5021305;28;20201;-78
2022/04/15 01:10:06;;;;;;;6.33;5.73;;;13.30;99.90;;;;;;5012047;28;20191;-78
2022/04/15 01:12:34;;;;;;;6.17;5.57;;;13.20;99.90;;;;;;5030256;28;20187;-78
2022/04/15 01:15:03;;;;;;;6.43;5.83;;;13.00;99.90;;;;;;5009786;28;20709;-77
2022/04/15 01:17:29;;;;;;;8.10;5.90;;;12.90;99.90;;;;;;5011104;28;20194;-78
2022/04/15 01:19:56;;;;;;;6.67;5.97;;;12.80;99.90;;;;;;5008046;28;20187;-78
2022/04/15 01:22:28;;;;;;;11.57;6.40;;;12.70;99.90;;;;;;5011445;28;20199;-78
2022/04/15 01:24:53;;;;;;;6.67;6.03;;;12.70;99.90;;;;;;5010881;28;20230;-78
2022/04/15 01:27:32;;;;;;;7.00;6.17;;;12.70;99.90;;;;;;5010839;28;20678;-78
2022/04/15 01:29:58;;;;;;;5.97;5.40;;;12.70;99.90;;;;;;5009500;28;20258;-78
2022/04/15 01:32:24;;;;;;;5.93;5.33;;;12.80;99.90;;;;;;5010865;28;20216;-78
2022/04/15 01:34:50;;;;;;;6.07;5.53;;;12.80;99.90;;;;;;5008290;28;20191;-78
2022/04/15 01:37:19;;;;;;;7.07;6.37;;;12.80;99.90;;;;;;5014462;28;20206;-78
2022/04/15 01:39:45;;;;;;;8.27;6.30;;;12.80;99.90;;;;;;5009602;28;20195;-78
2022/04/15 01:42:11;;;;;;;6.60;6.00;;;12.70;99.90;;;;;;5010681;28;20822;-78
2022/04/15 01:44:39;;;;;;;6.87;5.63;;;12.80;99.90;;;;;;5006658;28;20190;-78
2022/04/15 01:47:05;;;;;;;7.23;6.20;;;12.80;99.90;;;;;;5004131;28;20196;-77
2022/04/15 01:49:31;;;;;;;7.23;5.90;;;12.80;99.90;;;;;;5006720;28;20184;-77
2022/04/15 01:51:57;;;;;;;5.53;5.00;;;;;;;;;;5009457;28;20689;-78
2022/04/15 01:54:23;;;;;;;5.40;4.30;;;;;;;;;;5021154;28;20203;-78
2022/04/15 01:56:50;;;;;;;5.23;4.73;;;;;;;;;;5025529;28;20199;-78
2022/04/15 01:59:16;;;;;;;6.70;4.90;;;;;;;;;;5012612;28;20249;-77
2022/04/15 02:01:42;;;;;;;6.33;5.73;;;;;;;;;;5018626;28;20200;-77
2022/04/15 02:04:08;;;;;;;6.40;5.80;;;;;;;;;;5008572;28;20238;-77
2022/04/15 02:06:34;;;;;;;7.93;5.90;;;;;;;;;;5010429;28;20194;-77
2022/04/15 02:09:00;;;;;;;6.30;5.30;;;;;;;;;;5010090;28;20171;-78
2022/04/15 02:11:26;;;;;;;6.03;5.47;;;;;;;;;;5013165;28;20191;-77
2022/04/15 02:13:53;;;;;;;7.07;5.50;;;;;;;;;;5012816;28;20651;-78
2022/04/15 02:16:19;;;;;;;5.73;4.97;;;;;;;;;;4997192;28;20211;-78
2022/04/15 02:18:45;;;;;;;5.67;4.97;;;;;;;;;;5013423;28;20221;-77
2022/04/15 02:21:11;;;;;;;6.63;5.07;;;;;;;;;;5013496;28;20194;-78
2022/04/15 02:23:37;;;;;;;5.60;4.53;;;;;;;;;;5012684;28;20215;-78
2022/04/15 02:26:04;;;;;;;4.60;4.20;;;;;;;;;;5013621;28;20239;-78
2022/04/15 02:28:30;;;;;;;6.27;5.33;;;;;;;;;;5010701;28;20241;-78
2022/04/15 02:30:56;;;;;;;8.07;5.80;;;;;;;;;;5011775;28;20651;-78
2022/04/15 02:33:22;;;;;;;5.50;5.00;;;;;;;;;;5011015;28;20176;-78
2022/04/15 02:35:49;;;;;;;6.60;5.20;;;;;;;;;;5011953;28;20319;-78
2022/04/15 02:38:16;;;;;;;5.30;4.80;;;;;;;;;;5013855;28;20582;-78
2022/04/15 02:40:43;;;;;;;5.80;5.20;;;;;;;;;;5013853;28;20651;-78
2022/04/15 02:43:10;;;;;;;6.00;5.40;;;;;;;;;;5013821;28;20211;-78
2022/04/15 02:45:36;;;;;;;7.13;5.67;;;;;;;;;;5012332;28;20205;-78
2022/04/15 02:48:02;;;;;;;6.20;5.60;;;;;;;;;;5013931;28;20179;-77
2022/04/15 02:50:28;;;;;;;6.73;5.57;;;;;;;;;;5011197;28;20616;-77
2022/04/15 02:52:55;;;;;;;6.43;5.07;;;;;;;;;;5013433;28;20238;-77
2022/04/15 02:55:21;;;;;;;5.90;5.40;;;;;;;;;;5013818;28;20633;-78
2022/04/15 02:57:47;;;;;;;6.87;5.67;;;;;;;;;;5029404;28;20229;-78
2022/04/15 03:00:14;;;;;;;6.47;5.37;;;;;;;;;;5012801;28;20206;-78
2022/04/15 03:02:40;;;;;;;6.20;5.60;;;;;;;;;;5012131;28;20206;-76
2022/04/15 03:05:09;;;;;;;7.90;5.40;;;;;;;;;;5012051;28;20229;-76
2022/04/15 03:07:35;;;;;;;9.80;6.07;;;;;;;;;;5023003;28;20655;-77
2022/04/15 03:10:02;;;;;;;6.07;5.37;;;;;;;;;;5013284;28;20253;-77
2022/04/15 03:12:28;;;;;;;5.60;5.10;;;;;;;;;;5013587;28;20201;-77
2022/04/15 03:14:54;;;;;;;6.27;5.37;;;;;;;;;;5013229;28;20578;-76
2022/04/15 03:17:20;;;;;;;6.40;5.80;;;;;;;;;;5013465;28;20206;-76
2022/04/15 03:19:47;;;;;;;5.37;4.70;;;;;;;;;;5011732;28;20179;-77
2022/04/15 03:22:13;;;;;;;5.80;5.20;;;;;;;;;;5011680;28;20222;-76
2022/04/15 03:24:39;;;;;;;5.47;4.97;;;;;;;;;;5011620;28;20184;-77
2022/04/15 03:27:05;;;;;;;6.57;5.00;;;;;;;;;;5016207;28;20261;-77
2022/04/15 03:29:31;;;;;;;5.03;4.57;;;;;;;;;;5015910;28;20179;-77
2022/04/15 03:31:57;;;;;;;5.80;5.20;;;;;;;;;;5018089;28;20191;-77
2022/04/15 03:34:23;;;;;;;5.90;5.30;;;;;;;;;;5012466;28;20179;-77
2022/04/15 03:36:50;;;;;;;5.50;5.00;;;;;;;;;;5011975;28;20261;-77
2022/04/15 03:39:16;;;;;;;5.70;5.20;;;;;;;;;;5009197;28;20193;-77
2022/04/15 03:41:42;;;;;;;5.37;4.83;;;;;;;;;;5010138;28;20179;-77
2022/04/15 03:44:08;;;;;;;4.53;4.13;;;;;;;;;;5011979;28;20187;-77
2022/04/15 03:46:34;;;;;;;4.67;4.27;;;;;;;;;;5014960;28;20195;-77
2022/04/15 03:49:00;;;;;;;5.20;4.70;;;;;;;;;;5012069;28;20180;-77
2022/04/15 03:51:27;;;;;;;4.67;4.27;;;;;;;;;;5009698;28;20651;-77
2022/04/15 03:53:53;;;;;;;5.07;4.67;;;;;;;;;;5011025;28;20186;-77
2022/04/15 03:56:19;;;;;;;4.23;3.87;;;;;;;;;;5011043;28;20265;-77
2022/04/15 03:58:45;;;;;;;3.90;3.60;;;;;;;;;;5011486;28;20219;-77
2022/04/15 04:01:11;;;;;;;3.60;3.30;;;;;;;;;;5007435;28;20195;-77
2022/04/15 04:03:37;;;;;;;4.40;4.00;;;;;;;;;;5008988;28;20266;-77
2022/04/15 04:06:03;;;;;;;4.00;3.70;;;;;;;;;;5007928;28;20199;-77
2022/04/15 04:08:29;;;;;;;6.37;4.80;;;;;;;;;;5012075;28;20187;-77
2022/04/15 04:10:56;;;;;;;5.60;4.77;;;;;;;;;;5012296;28;20667;-77
2022/04/15 04:13:22;;;;;;;5.87;5.37;;;;;;;;;;5009325;28;20566;-77
2022/04/15 04:15:49;;;;;;;5.97;5.43;;;;;;;;;;5009309;28;20217;-77
2022/04/15 04:18:17;;;;;;;5.50;4.90;;;;;;;;;;5011963;28;20258;-76
2022/04/15 04:20:44;;;;;;;5.93;5.33;;;;;;;;;;5011136;28;20184;-77
2022/04/15 04:23:10;;;;;;;6.70;4.30;;;;;;;;;;5012328;28;20208;-77
2022/04/15 04:25:43;;;;;;;4.37;3.60;;;;;;;;;;5010150;28;20222;-77
2022/04/15 04:28:11;;;;;;;3.93;3.53;;;;;;;;;;5007999;28;20175;-77
2022/04/15 04:30:43;;;;;;;3.33;3.03;;;;;;;;;;5012186;28;20199;-76
2022/04/15 04:33:09;;;;;;;3.53;3.23;;;;;;;;;;5011271;28;20197;-76
2022/04/15 04:35:37;;;;;;;3.80;3.50;;;;;;;;;;5010225;28;20210;-77
2022/04/15 04:38:05;;;;;;;4.13;3.30;;;;;;;;;;5009665;28;20551;-75
2022/04/15 04:40:31;;;;;;;3.53;3.23;;;;;;;;;;5011198;28;20643;-77
2022/04/15 04:42:57;;;;;;;4.20;3.80;;;;;;;;;;5012072;28;20286;-76
2022/04/15 04:45:23;;;;;;;4.10;3.70;;;12.90;99.90;;;;;;5011713;28;20726;-76
2022/04/15 04:47:49;;;;;;;3.93;3.50;;;10.80;99.90;;;;;;5008959;28;20171;-76
2022/04/15 04:50:15;;;;;;;3.50;3.20;;;10.80;99.90;;;;;;5008926;28;20197;-76
2022/04/15 04:52:41;;;;;;;3.70;3.40;;;10.70;99.90;;;;;;5010976;28;20186;-77
2022/04/15 04:55:08;;;;;;;5.70;3.90;;;10.70;99.90;;;;;;5006792;28;20266;-77
2022/04/15 04:57:33;;;;;;;4.03;3.73;;;10.80;99.90;;;;;;5011006;28;20229;-76
2022/04/15 04:59:59;;;;;;;4.77;4.07;;;10.80;99.90;;;;;;5010186;28;20192;-77
2022/04/15 05:02:25;;;;;;;4.37;3.80;;;10.90;99.90;;;;;;5007318;28;20262;-77
2022/04/15 05:04:51;;;;;;;4.47;4.07;;;10.90;99.90;;;;;;5008394;28;20171;-78
2022/04/15 05:07:17;;;;;;;5.30;4.80;;;10.90;99.90;;;;;;5023765;28;20222;-77
2022/04/15 05:09:43;;;;;;;5.03;4.57;;;10.90;99.90;;;;;;5011008;28;20244;-77
2022/04/15 05:12:12;;;;;;;5.30;4.73;;;10.90;99.90;;;;;;4995475;28;20202;-77
2022/04/15 05:14:38;;;;;;;5.40;4.90;;;11.00;99.90;;;;;;5000902;28;20190;-77
2022/04/15 05:17:05;;;;;;;6.83;5.07;;;11.00;99.90;;;;;;5011804;28;20203;-77
2022/04/15 05:19:31;;;;;;;5.80;5.13;;;11.10;99.90;;;;;;5010401;28;20273;-77
2022/04/15 05:21:57;;;;;;;6.70;4.73;;;11.20;99.90;;;;;;5010800;28;20187;-77
2022/04/15 05:24:23;;;;;;;5.10;4.60;;;11.20;99.90;;;;;;5011414;28;20639;-77
2022/04/15 05:26:48;;;;;;;5.03;4.57;;;11.30;99.90;;;;;;5013791;28;20211;-76
2022/04/15 05:29:14;;;;;;;4.13;3.73;;;;;;;;;;5013546;28;21171;-77
2022/04/15 05:31:42;;;;;;;4.10;3.70;;;;;;;;;;5010940;28;20202;-77
2022/04/15 05:34:09;;;;;;;3.90;3.60;;;;;;;;;;5011130;28;20175;-77
2022/04/15 05:36:35;;;;;;;4.30;3.90;;;;;;;;;;5024452;28;20211;-77
2022/04/15 05:39:01;;;;;;;4.50;4.10;;;;;;;;;;5026135;28;20266;-77
2022/04/15 05:41:28;;;;;;;4.30;3.90;;;;;;;;;;5012924;28;20175;-76
2022/04/15 05:43:55;;;;;;;5.17;4.67;;;;;;;;;;5012906;28;20211;-77
2022/04/15 05:46:21;;;;;;;4.50;4.10;;;;;;;;;;5011686;28;20268;-77
2022/04/15 05:48:48;;;;;;;4.70;4.20;;;;;;;;;;5008702;28;20273;-79
2022/04/15 05:51:14;;;;;;;4.80;4.40;;;;;;;;;;5008613;28;20179;-82
2022/04/15 05:53:41;;;;;;;4.90;4.47;;;;;;;;;;5012679;28;20187;-83
2022/04/15 05:56:07;;;;;;;5.47;4.97;;;;;;;;;;4992209;28;20633;-82
2022/04/15 05:58:33;;;;;;;4.83;4.33;;;;;;;;;;4993520;28;20187;-83
2022/04/15 06:00:59;;;;;;;5.83;4.70;;;;;;;;;;5014270;28;20183;-83
2022/04/15 06:03:26;;;;;;;6.07;4.93;;;;;;;;;;4995346;28;20265;-83
2022/04/15 06:05:52;;;;;;;8.87;7.00;;;;;;;;;;4978565;28;20211;-81
2022/04/15 06:08:18;;;;;;;6.97;6.27;;;;;;;;;;5012304;28;20268;-83
2022/04/15 06:10:45;;;;;;;8.93;8.03;;;;;;;;;;4996373;28;20195;-83
2022/04/15 06:13:14;;;;;;;8.20;6.73;;;;;;;;;;5012060;28;20183;-85
2022/04/15 06:15:41;;;;;;;7.73;6.93;;;;;;;;;;4977887;28;20911;-85
2022/04/15 06:18:08;;;;;;;8.27;7.47;;;;;;;;;;4978650;28;20180;-85
2022/04/15 06:20:34;;;;;;;8.37;7.43;;;;;;;;;;4993903;28;20269;-85
2022/04/15 06:23:01;;;;;;;8.50;7.60;;;;;;;;;;4993898;28;20230;-84
2022/04/15 06:25:30;;;;;;;8.10;7.30;;;;;;;;;;5026479;28;20207;-85
2022/04/15 06:27:56;;;;;;;9.47;8.20;;;;;;;;;;5007046;28;20556;-85
2022/04/15 06:30:24;;;;;;;10.53;8.23;;;;;;;;;;5019988;28;20183;-83
2022/04/15 06:32:52;;;;;;;9.47;8.40;;;;;;;;;;5009924;28;20194;-82
2022/04/15 06:35:18;;;;;;;9.97;8.97;;;;;;;;;;5012147;28;20187;-81
2022/04/15 06:37:46;;;;;;;10.23;8.77;;;;;;;;;;5012035;28;20268;-82
2022/04/15 06:40:12;;;;;;;8.70;7.87;;;;;;;;;;5012779;28;20655;-82
2022/04/15 06:42:38;;;;;;;9.97;8.20;;;;;;;;;;5011180;28;20263;-82
2022/04/15 06:45:05;;;;;;;10.93;9.07;;;;;;;;;;5010752;28;20190;-82
2022/04/15 06:47:32;;;;;;;9.63;8.60;;;;;;;;;;5008393;28;20274;-82
2022/04/15 06:49:59;;;;;;;13.10;10.50;;;;;;;;;;4993701;28;20314;-82
2022/04/15 06:52:25;;;;;;;12.47;10.83;;;;;;;;;;4994045;28;20187;-82
2022/04/15 06:54:51;;;;;;;14.03;11.97;;;;;;;;;;4993747;28;20191;-82
2022/04/15 06:57:17;;;;;;;15.87;14.07;;;;;;;;;;4996919;28;20204;-81
2022/04/15 06:59:44;;;;;;;15.60;14.00;;;;;;;;;;4998883;28;20590;-82
2022/04/15 07:02:10;;;;;;;19.97;17.00;;;;;;;;;;5012494;28;20218;-82
2022/04/15 07:04:36;;;;;;;20.70;18.50;;;;;;;;;;4994190;28;20179;-82
2022/04/15 07:07:03;;;;;;;23.30;19.73;;;;;;;;;;5014297;28;20203;-83
2022/04/15 07:09:29;;;;;;;24.03;20.27;;;;;;;;;;5012400;28;20218;-83
2022/04/15 07:11:56;;;;;;;18.60;16.53;;;;;;;;;;4994922;28;20242;-83
2022/04/15 07:14:22;;;;;;;23.03;19.67;;;;;;;;;;5014302;28;20194;-83
2022/04/15 07:16:48;;;;;;;22.40;20.03;;;;;;;;;;5010773;28;20219;-82
2022/04/15 07:19:15;;;;;;;21.47;19.17;;;;;;;;;;5008559;28;20237;-82
2022/04/15 07:21:43;;;;;;;23.70;18.83;;;;;;;;;;5015279;28;20167;-82
2022/04/15 07:24:09;;;;;;;23.30;18.53;;;;;;;;;;5014032;28;20195;-83
2022/04/15 07:26:36;;;;;;;20.70;18.53;;;;;;;;;;4980731;28;20217;-83
2022/04/15 07:29:02;;;;;;;21.60;18.67;;;;;;;;;;4997578;28;20168;-83
2022/04/15 07:31:28;;;;;;;19.97;17.87;;;;;;;;;;5013166;28;20187;-83
2022/04/15 07:33:54;;;;;;;19.77;17.70;;;;;;;;;;4997794;28;20190;-83
2022/04/15 07:39:06;;;;;;;19.47;16.77;;;;;;;;;;5012707;28;20183;-83
2022/04/15 07:41:36;;;;;;;21.27;18.97;;;;;;;;;;5013527;28;20565;-84
2022/04/15 07:44:03;;;;;;;22.10;18.57;;;;;;;;;;5013383;28;20301;-79
2022/04/15 07:46:30;;;;;;;21.90;18.50;;;;;;;;;;5015333;28;20410;-83
2022/04/15 07:48:56;;;;;;;21.67;19.37;;;;;;;;;;4989040;28;20568;-77
2022/04/15 07:51:22;;;;;;;21.87;18.67;;;;;;;;;;5013247;28;20183;-80
2022/04/15 07:53:48;;;;;;;20.47;18.27;;;;;;;;;;5025159;28;20255;-83
2022/04/15 07:56:15;;;;;;;20.03;17.87;;;;;;;;;;5017020;28;20215;-81
2022/04/15 07:58:41;;;;;;;24.40;21.47;;;;;;;;;;5022202;28;20198;-81
2022/04/15 08:01:27;;;;;;;24.87;21.23;;;;;;;;;;5000879;28;21159;-81
2022/04/15 08:03:55;;;;;;;22.80;19.93;;;;;;;;;;5000064;28;20211;-80
2022/04/15 08:06:22;;;;;;;23.90;20.97;;;;;;;;;;5013799;28;20336;-83
2022/04/15 08:08:49;;;;;;;25.90;23.10;;;;;;;;;;4999462;28;20191;-81
2022/04/15 08:11:15;;;;;;;24.03;21.20;;;;;;;;;;5015160;28;20202;-82
2022/04/15 08:13:41;;;;;;;21.43;19.17;;;;;;;;;;5008617;28;20258;-82
2022/04/15 08:16:08;;;;;;;20.43;18.33;;;;;;;;;;5013855;28;20277;-81
2022/04/15 08:18:35;;;;;;;20.83;18.63;;;;;;;;;;4994395;28;20192;-80
2022/04/15 08:21:01;;;;;;;19.97;17.93;;;;;;;;;;5015645;28;20202;-80
2022/04/15 08:23:27;;;;;;;20.73;18.20;;;;;;;;;;5013999;28;20245;-80
2022/04/15 08:25:53;;;;;;;20.77;17.13;;;;;;;;;;5008455;28;20210;-80
2022/04/15 08:28:20;;;;;;;17.03;15.17;;;;;;;;;;5012006;28;20223;-80
2022/04/15 08:30:46;;;;;;;18.20;16.33;;;;;;;;;;5034972;28;20179;-81
2022/04/15 08:33:40;;;;;;;19.53;17.30;;;;;;;;;;4994621;28;20241;-81
2022/04/15 08:36:07;;;;;;;17.53;15.63;;;;;;;;;;5001075;28;20684;-80
2022/04/15 08:38:33;;;;;;;17.23;15.43;;;;;;;;;;5015105;28;20246;-81
2022/04/15 08:40:59;;;;;;;15.60;14.00;;;;;;;;;;5013612;28;20581;-81
2022/04/15 08:43:26;;;;;;;16.37;14.63;;;;;;;;;;5013503;28;20215;-81
2022/04/15 08:45:52;;;;;;;16.03;14.30;;;;;;;;;;4999633;28;20203;-81
2022/04/15 08:48:19;;;;;;;14.77;13.33;;;;;;;;;;5017170;28;20274;-81
2022/04/15 08:50:45;;;;;;;14.50;12.13;;;;;;;;;;5001387;28;20918;-81
2022/04/15 08:53:11;;;;;;;15.27;11.80;;;;;;;;;;4997973;28;20205;-81
2022/04/15 08:55:38;;;;;;;15.33;12.53;;;;;;;;;;5033300;28;20203;-81
2022/04/15 08:58:04;;;;;;;14.43;12.93;;;;;;;;;;5014333;28;20216;-81
2022/04/15 09:00:50;;;;;;;13.60;12.23;;;;;;;;;;4941029;29;20184;-81
2022/04/15 09:03:16;;;;;;;13.73;11.67;;;;;;;;;;4938924;29;20209;-81
2022/04/15 09:05:44;;;;;;;13.57;10.97;;;;;;;;;;4939921;29;20637;-81
2022/04/15 09:08:12;;;;;;;10.77;9.57;;;;;;;;;;4954186;29;20306;-81
2022/04/15 09:10:42;;;;;;;11.43;9.33;;;;;;;;;;4996831;28;20769;-81
2022/04/15 09:13:18;;;;;;;10.87;8.87;;;;;;;;;;4983656;28;20191;-81
2022/04/15 09:15:44;;;;;;;9.10;8.17;;;;;;;;;;5017075;28;20684;-81
2022/04/15 09:18:10;;;;;;;9.47;8.47;;;;;;;;;;5015931;28;20184;-81
2022/04/15 09:20:36;;;;;;;10.90;8.90;;;;;;;;;;4998963;28;20187;-81
2022/04/15 09:23:09;;;;;;;9.27;8.37;;;;;;;;;;5014920;28;20218;-81
2022/04/15 09:25:36;;;;;;;9.70;8.30;;;;;;;;;;4998670;28;20215;-81
2022/04/15 09:28:03;;;;;;;9.03;7.50;;;;;;;;;;5013204;28;20231;-81
2022/04/15 09:30:40;;;;;;;8.13;6.70;;;;;;;;;;4981160;28;20195;-81
2022/04/15 09:33:06;;;;;;;8.00;6.40;;;;;;;;;;5014080;28;20265;-81
2022/04/15 09:35:32;;;;;;;8.07;7.23;;;;;;;;;;5013267;28;20215;-81
2022/04/15 09:38:00;;;;;;;8.30;7.40;;;;;;;;;;5014548;28;20194;-81
2022/04/15 09:40:27;;;;;;;10.03;6.73;;;;;;;;;;5006283;28;20260;-81
2022/04/15 09:42:54;;;;;;;6.80;6.10;;;;;;;;;;5003796;28;20207;-81
2022/04/15 09:45:24;;;;;;;8.13;5.17;;;;;;;;;;5015279;28;20217;-81
2022/04/15 09:47:53;;;;;;;5.13;4.33;;;;;;;;;;5013244;28;20602;-81
2022/04/15 09:50:29;;;;;;;4.87;4.37;;;;;;;;;;5008619;28;20262;-81
2022/04/15 09:52:56;;;;;;;6.27;5.37;;;;;;;;;;4995339;28;20210;-81
2022/04/15 09:55:23;;;;;;;8.60;5.47;;;;;;;;;;4994745;28;20183;-81
2022/04/15 09:57:49;;;;;;;7.60;5.40;;;;;;;;;;5011908;28;20195;-81
2022/04/15 10:00:16;;;;;;;6.93;5.90;;;;;;;;;;5010359;28;20203;-81
2022/04/15 10:02:43;;;;;;;6.90;6.20;;;;;;;;;;5014973;28;20229;-81
2022/04/15 10:05:09;;;;;;;7.53;5.83;;;;;;;;;;5010628;28;20198;-81
2022/04/15 10:07:37;;;;;;;4.40;3.70;;;;;;;;;;5030006;28;20187;-81
2022/04/15 10:10:03;;;;;;;4.80;3.50;;;;;;;;;;4997539;28;20217;-82
2022/04/15 10:12:30;;;;;;;5.43;3.27;;;;;;;;;;5013770;28;20183;-80
2022/04/15 10:14:56;;;;;;;4.83;3.47;;;;;;;;;;5029815;28;20195;-81
2022/04/15 10:17:23;;;;;;;4.57;3.03;;;;;;;;;;5012526;28;20207;-81
2022/04/15 10:19:49;;;;;;;4.83;3.20;;;;;;;;;;5011881;28;20187;-81
2022/04/15 10:22:16;;;;;;;2.90;2.60;;;;;;;;;;5011299;28;20217;-82
2022/04/15 10:24:43;;;;;;;3.40;2.83;;;;;;;;;;5012153;28;20224;-81
2022/04/15 10:27:11;;;;;;;4.87;3.10;;;;;;;;;;5005412;28;20832;-81
2022/04/15 10:29:37;;;;;;;3.33;3.00;;;;;;;;;;5027094;28;20189;-81
2022/04/15 10:32:14;;;;;;;2.17;1.90;;;;;;;;;;5030276;28;20206;-81
2022/04/15 10:34:47;;;;;;;2.17;1.80;;;;;;;;;;5032301;28;20175;-81
2022/04/15 10:37:13;;;;;;;3.97;2.40;;;;;;;;;;5015280;28;20318;-81
2022/04/15 10:39:50;;;;;;;3.23;2.93;;;;;;;;;;5014714;28;20179;-81
2022/04/15 10:42:20;;;;;;;4.83;3.30;;;;;;;;;;5016506;28;20198;-82
2022/04/15 10:44:47;;;;;;;4.50;3.73;;;;;;;;;;5012214;28;20183;-82
2022/04/15 10:47:20;;;;;;;4.90;2.90;;;;;;;;;;4981401;28;20215;-82
2022/04/15 10:49:56;;;;;;;3.30;2.90;;;;;;;;;;5008378;28;20257;-82
2022/04/15 10:52:25;;;;;;;3.50;2.63;;;;;;;;;;5013470;28;20293;-82
2022/04/15 10:54:52;;;;;;;2.23;2.00;;;;;;;;;;5005870;28;20191;-82
2022/04/15 10:57:19;;;;;;;2.73;2.40;;;;;;;;;;5020995;28;20208;-82
2022/04/15 11:02:42;;;;;;;2.77;2.30;;;;;;;;;;5012585;28;20202;-82
2022/04/15 11:05:11;;;;;;;2.47;2.10;;;;;;;;;;4993106;28;20271;-83
2022/04/15 11:07:51;;;;;;;3.17;2.30;;;;;;;;;;4990105;28;20191;-82
2022/04/15 11:10:18;;;;;;;3.20;1.97;;;;;;;;;;5005207;28;20946;-82
2022/04/15 11:12:45;;;;;;;3.20;2.20;;;;;;;;;;5011637;28;20199;-82
2022/04/15 11:15:12;;;;;;;3.83;2.20;;;;;;;;;;5007968;28;20278;-82
2022/04/15 11:17:45;;;;;;;3.00;2.17;;;;;;;;;;5012136;28;20195;-82
2022/04/15 11:20:12;;;;;;;3.07;2.00;;;;;;;;;;4986286;28;20187;-82
2022/04/15 11:22:42;;;;;;;2.73;2.10;;;;;;;;;;4994568;28;20246;-82
2022/04/15 11:25:09;;;;;;;1.83;1.70;;;;;;;;;;5011389;28;20183;-82
2022/04/15 11:27:38;;;;;;;2.63;1.80;;;;;;;;;;5002754;28;20194;-82
2022/04/15 11:30:11;;;;;;;2.43;1.70;;;;;;;;;;5003272;28;20202;-82
2022/04/15 11:32:56;;;;;;;1.73;1.40;;;;;;;;;;4995166;28;20208;-82
2022/04/15 11:35:30;;;;;;;1.97;1.50;;;;;;;;;;5000716;28;20187;-83
2022/04/15 11:38:04;;;;;;;2.30;1.40;;;;;;;;;;5000298;28;20187;-82
2022/04/15 11:40:34;;;;;;;1.20;1.10;;;;;;;;;;5001856;28;20222;-82
2022/04/15 11:43:05;;;;;;;1.30;1.00;;;;;;;;;;5009917;28;20217;-82
2022/04/15 11:45:32;;;;;;;2.60;1.17;;;;;;;;;;5007273;28;20796;-82
2022/04/15 11:48:17;;;;;;;1.57;1.03;;;;;;;;;;4994061;28;20192;-82
2022/04/15 11:50:44;;;;;;;1.10;1.00;;;;;;;;;;5021614;28;20214;-81
2022/04/15 11:53:10;;;;;;;2.37;0.90;;;;;;;;;;5011566;28;20202;-82
2022/04/15 11:55:58;;;;;;;1.87;0.90;;;;;;;;;;5009292;28;20207;-82
2022/04/15 11:58:26;;;;;;;1.53;1.20;;;;;;;;;;5007483;28;20654;-82
2022/04/15 12:00:52;;;;;;;3.07;1.00;;;;;;;;;;5009193;28;20199;-83
2022/04/15 12:03:19;;;;;;;1.57;1.00;;;;;;;;;;4991680;28;20649;-83
2022/04/15 12:05:45;;;;;;;1.23;1.13;;;15.50;99.90;;;;;;5007832;28;20223;-82
2022/04/15 12:08:10;;;;;;;2.60;1.10;;;23.40;42.10;;;;;;5002864;28;20197;-82
2022/04/15 12:10:40;;;;;;;1.07;0.93;;;;;;;;;;5006777;28;20238;-83
2022/04/15 12:13:09;;;;;;;3.07;1.10;;;;;;;;;;5025348;28;20192;-83
2022/04/15 12:15:36;;;;;;;1.60;1.00;;;;;;;;;;4997184;28;20216;-83
2022/04/15 12:18:03;;;;;;;1.20;1.10;;;;;;;;;;4991092;28;20614;-83
2022/04/15 12:20:30;;;;;;;1.53;1.17;;;;;;;;;;5012188;28;20286;-83
2022/04/15 12:23:00;;;;;;;1.20;1.10;;;;;;;;;;5002282;28;20207;-83
2022/04/15 12:25:26;;;;;;;2.37;1.10;;;;;;;;;;5015610;28;20233;-83
2022/04/15 12:27:55;;;;;;;1.67;1.40;;;;;;;;;;5006537;28;20188;-83
2022/04/15 12:30:34;;;;;;;2.70;1.37;;;;;;;;;;4993089;28;20184;-84
2022/04/15 12:33:13;;;;;;;1.97;1.30;;;;;;;;;;4977588;28;20247;-84
2022/04/15 12:35:57;;;;;;;3.60;1.60;;;;;;;;;;5007507;28;20218;-83
2022/04/15 12:38:23;;;;;;;3.50;1.50;;;;;;;;;;4985344;28;20202;-83
2022/04/15 12:40:49;;;;;;;2.03;1.20;;;;;;;;;;4997993;28;20877;-84
2022/04/15 12:43:17;;;;;;;1.90;1.20;;;;;;;;;;4988894;28;20675;-84
2022/04/15 12:45:53;;;;;;;2.77;1.10;;;;;;;;;;4979201;28;20330;-87
2022/04/15 12:48:19;;;;;;;2.87;1.13;;;;;;;;;;5000329;28;20678;-85
2022/04/15 12:50:47;;;;;;;1.63;1.00;;;;;;;;;;5001810;28;20184;-84
2022/04/15 12:53:15;;;;;;;1.67;1.10;;;;;;;;;;5005654;28;20195;-87
2022/04/15 12:55:41;;;;;;;1.40;1.10;;;;;;;;;;5000425;28;20246;-84
2022/04/15 12:58:20;;;;;;;1.40;0.90;;;;;;;;;;5009044;28;20221;-88
2022/04/15 13:00:48;;;;;;;1.00;0.90;;;;;;;;;;4991555;28;20288;-87
2022/04/15 13:03:17;;;;;;;2.53;1.00;;;;;;;;;;4998978;28;20225;-86
2022/04/15 13:05:46;;;;;;;1.60;1.03;;;;;;;;;;4993152;28;20254;-83
2022/04/15 13:08:13;;;;;;;4.33;1.20;;;;;;;;;;5008903;28;20253;-85
2022/04/15 13:10:40;;;;;;;2.10;0.97;;;;;;;;;;5011807;28;20195;-84
2022/04/15 13:13:07;;;;;;;1.93;1.20;;;;;;;;;;5010716;28;20273;-85
2022/04/15 13:15:33;;;;;;;3.37;1.20;;;;;;;;;;5011875;28;20610;-86
2022/04/15 13:17:59;;;;;;;1.70;1.00;;;;;;;;;;4980197;28;21388;-85
2022/04/15 13:20:25;;;;;;;2.17;0.90;;;;;;;;;;4994324;28;20650;-86
2022/04/15 13:22:51;;;;;;;1.67;1.20;;;;;;;;;;4995175;28;20215;-85
2022/04/15 13:25:18;;;;;;;2.20;1.13;;;;;;;;;;5000144;28;20188;-83
2022/04/15 13:27:45;;;;;;;1.53;1.00;;;;;;;;;;5009716;28;20199;-81
2022/04/15 13:30:11;;;;;;;1.90;1.10;;;;;;;;;;5006686;28;20188;-79
2022/04/15 13:32:37;;;;;;;1.90;1.23;;;;;;;;;;5003012;28;20994;-80
2022/04/15 13:35:04;;;;;;;3.67;1.30;;;;;;;;;;5003203;28;20254;-79
2022/04/15 13:37:30;;;;;;;1.80;1.10;;;;;;;;;;5006874;28;20245;-80
2022/04/15 13:39:56;;;;;;;1.83;1.10;;;;;;;;;;5004988;28;20183;-79
2022/04/15 13:42:22;;;;;;;1.80;1.17;;;;;;;;;;5008329;28;21000;-82
2022/04/15 13:44:48;;;;;;;1.87;1.10;;;;;;;;;;5001806;28;20181;-81
2022/04/15 13:47:14;;;;;;;1.73;1.23;;;;;;;;;;5004714;28;20257;-82
2022/04/15 13:49:41;;;;;;;1.57;1.17;;;;;;;;;;5007504;28;20187;-82
2022/04/15 13:57:39;;;;;;;1.70;1.00;;;;;;;;;;5007037;28;20529;-82
2022/04/15 14:00:06;;;;;;;1.47;1.07;;;;;;;;;;4987834;28;20266;-82
2022/04/15 14:02:32;;;;;;;1.33;1.10;;;;;;;;;;4997176;28;20218;-82
2022/04/15 14:04:59;;;;;;;1.37;1.00;;;;;;;;;;4999269;28;20553;-81
2022/04/15 14:07:26;;;;;;;1.83;1.10;;;;;;;;;;5003953;28;20258;-82
2022/04/15 14:09:52;;;;;;;1.47;1.10;;;;;;;;;;5004295;28;20211;-82
2022/04/15 14:12:19;;;;;;;1.30;1.10;;;;;;;;;;5012685;28;20176;-82
2022/04/15 14:14:46;;;;;;;1.10;1.00;;;;;;;;;;5015113;28;20187;-82
2022/04/15 14:17:12;;;;;;;2.83;1.33;;;;;;;;;;4999708;28;20596;-82
2022/04/15 14:19:38;;;;;;;1.27;1.10;;;;;;;;;;4984980;28;20218;-82
2022/04/15 14:22:05;;;;;;;1.27;1.00;;;;;;;;;;5003032;28;20215;-82
2022/04/15 14:24:33;;;;;;;1.80;1.20;;;;;;;;;;5001123;28;20218;-82
2022/04/15 14:27:00;;;;;;;1.73;1.20;;;;;;;;;;4986164;28;20211;-82